sensor_id;sensor_type;location;lat;lon;timestamp;temperature;humidity
18884;DHT22;9574;47.282;9.640;2022-12-18T00:02:00;-2.70;99.90
18884;DHT22;9574;47.282;9.640;2022-12-18T00:04:28;-2.50;99.90
18884;DHT22;9574;47.282;9.640;2022-12-18T00:06:55;-2.00;99.90
18884;DHT22;9574;47.282;9.640;2022-12-18T00:09:22;-2.20;99.90
18884;DHT22;9574;47.282;9.640;2022-12-18T00:11:49;-2.40;99.90
18884;DHT22;9574;47.282;9.640;2022-12-18T00:14:16;-2.50;99.90
18884;DHT22;9574;47.282;9.640;2022-12-18T00:16:45;-2.60;99.90
18884;DHT22;9574;47.282;9.640;2022-12-18T00:19:13;-2.70;99.90
18884;DHT22;9574;47.282;9.640;2022-12-18T00:21:41;-2.70;99.90
18884;DHT22;9574;47.282;9.640;2022-12-18T00:24:09;-2.80;99.90
18884;DHT22;9574;47.282;9.640;2022-12-18T00:26:37;-2.90;99.90
18884;DHT22;9574;47.282;9.640;2022-12-18T00:29:07;-2.80;99.90
18884;DHT22;9574;47.282;9.640;2022-12-18T00:31:34;-2.30;99.90
18884;DHT22;9574;47.282;9.640;2022-12-18T00:34:03;-2.10;99.90
18884;DHT22;9574;47.282;9.640;2022-12-18T00:36:32;-2.30;99.90
18884;DHT22;9574;47.282;9.640;2022-12-18T00:39:00;-2.60;99.90
18884;DHT22;9574;47.282;9.640;2022-12-18T00:41:28;-2.60;99.90
18884;DHT22;9574;47.282;9.640;2022-12-18T00:44:15;-2.60;99.90
18884;DHT22;9574;47.282;9.640;2022-12-18T00:46:43;-2.20;99.90
18884;DHT22;9574;47.282;9.640;2022-12-18T00:49:11;-2.50;99.90
18884;DHT22;9574;47.282;9.640;2022-12-18T00:51:38;-2.70;99.90
18884;DHT22;9574;47.282;9.640;2022-12-18T00:54:05;-2.90;99.90
18884;DHT22;9574;47.282;9.640;2022-12-18T00:56:32;-3.10;99.90
18884;DHT22;9574;47.282;9.640;2022-12-18T00:59:01;-3.10;99.90
18884;DHT22;9574;47.282;9.640;2022-12-18T01:01:28;-3.20;99.90
18884;DHT22;9574;47.282;9.640;2022-12-18T01:03:55;-3.30;99.90
18884;DHT22;9574;47.282;9.640;2022-12-18T01:06:25;-3.30;99.90
18884;DHT22;9574;47.282;9.640;2022-12-18T01:08:52;-3.40;99.90
18884;DHT22;9574;47.282;9.640;2022-12-18T01:11:20;-3.30;99.90
18884;DHT22;9574;47.282;9.640;2022-12-18T01:13:47;-3.30;99.90
18884;DHT22;9574;47.282;9.640;2022-12-18T01:16:16;-3.40;99.90
18884;DHT22;9574;47.282;9.640;2022-12-18T01:18:43;-3.50;99.90
18884;DHT22;9574;47.282;9.640;2022-12-18T01:21:16;-3.10;99.90
18884;DHT22;9574;47.282;9.640;2022-12-18T01:23:45;-3.00;99.90
18884;DHT22;9574;47.282;9.640;2022-12-18T01:26:14;-3.20;99.90
18884;DHT22;9574;47.282;9.640;2022-12-18T01:28:42;-3.30;99.90
18884;DHT22;9574;47.282;9.640;2022-12-18T01:31:12;-3.40;99.90
18884;DHT22;9574;47.282;9.640;2022-12-18T01:33:40;-3.40;99.90
18884;DHT22;9574;47.282;9.640;2022-12-18T01:36:07;-3.50;99.90
18884;DHT22;9574;47.282;9.640;2022-12-18T01:38:35;-3.60;99.90
18884;DHT22;9574;47.282;9.640;2022-12-18T01:41:03;-3.60;99.90
18884;DHT22;9574;47.282;9.640;2022-12-18T01:43:45;-3.60;99.90
18884;DHT22;9574;47.282;9.640;2022-12-18T01:46:12;-3.60;99.90
18884;DHT22;9574;47.282;9.640;2022-12-18T01:48:40;-3.60;99.90
18884;DHT22;9574;47.282;9.640;2022-12-18T01:51:09;-3.60;99.90
18884;DHT22;9574;47.282;9.640;2022-12-18T01:53:39;-3.60;99.90
18884;DHT22;9574;47.282;9.640;2022-12-18T01:56:10;-3.70;99.90
18884;DHT22;9574;47.282;9.640;2022-12-18T01:58:44;-3.60;99.90
18884;DHT22;9574;47.282;9.640;2022-12-18T02:01:13;-3.70;99.90
18884;DHT22;9574;47.282;9.640;2022-12-18T02:03:41;-3.70;99.90
18884;DHT22;9574;47.282;9.640;2022-12-18T02:06:14;-3.60;99.90
18884;DHT22;9574;47.282;9.640;2022-12-18T02:08:53;-3.60;99.90
18884;DHT22;9574;47.282;9.640;2022-12-18T02:11:34;-3.60;99.90
18884;DHT22;9574;47.282;9.640;2022-12-18T02:14:11;-3.60;99.90
18884;DHT22;9574;47.282;9.640;2022-12-18T02:16:46;-3.50;99.90
18884;DHT22;9574;47.282;9.640;2022-12-18T02:22:10;-2.80;99.90
18884;DHT22;9574;47.282;9.640;2022-12-18T02:24:50;-2.90;99.90
18884;DHT22;9574;47.282;9.640;2022-12-18T02:27:22;-3.20;99.90
18884;DHT22;9574;47.282;9.640;2022-12-18T02:29:51;-3.00;99.90
18884;DHT22;9574;47.282;9.640;2022-12-18T02:32:24;-3.10;99.90
18884;DHT22;9574;47.282;9.640;2022-12-18T02:34:53;-3.00;99.90
18884;DHT22;9574;47.282;9.640;2022-12-18T02:37:23;-3.10;99.90
18884;DHT22;9574;47.282;9.640;2022-12-18T02:39:53;-3.50;99.90
18884;DHT22;9574;47.282;9.640;2022-12-18T02:42:23;-3.70;99.90
18884;DHT22;9574;47.282;9.640;2022-12-18T02:44:51;-3.90;99.90
18884;DHT22;9574;47.282;9.640;2022-12-18T02:47:21;-4.00;99.90
18884;DHT22;9574;47.282;9.640;2022-12-18T02:49:55;-4.20;99.90
18884;DHT22;9574;47.282;9.640;2022-12-18T02:52:30;-4.20;99.90
18884;DHT22;9574;47.282;9.640;2022-12-18T02:55:08;-4.20;99.90
18884;DHT22;9574;47.282;9.640;2022-12-18T02:57:44;-4.20;99.90
18884;DHT22;9574;47.282;9.640;2022-12-18T03:00:16;-3.70;99.90
18884;DHT22;9574;47.282;9.640;2022-12-18T03:02:47;-3.30;99.90
18884;DHT22;9574;47.282;9.640;2022-12-18T03:05:18;-3.10;99.90
18884;DHT22;9574;47.282;9.640;2022-12-18T03:07:50;-2.90;99.90
18884;DHT22;9574;47.282;9.640;2022-12-18T03:10:22;-3.30;99.90
18884;DHT22;9574;47.282;9.640;2022-12-18T03:12:55;-3.70;99.90
18884;DHT22;9574;47.282;9.640;2022-12-18T03:15:29;-3.90;99.90
18884;DHT22;9574;47.282;9.640;2022-12-18T03:18:01;-4.20;99.90
18884;DHT22;9574;47.282;9.640;2022-12-18T03:20:31;-4.30;99.90
18884;DHT22;9574;47.282;9.640;2022-12-18T03:23:06;-4.40;99.90
18884;DHT22;9574;47.282;9.640;2022-12-18T03:25:35;-4.60;99.90
18884;DHT22;9574;47.282;9.640;2022-12-18T03:28:07;-4.10;99.90
18884;DHT22;9574;47.282;9.640;2022-12-18T03:30:36;-3.80;99.90
18884;DHT22;9574;47.282;9.640;2022-12-18T03:33:07;-4.00;99.90
18884;DHT22;9574;47.282;9.640;2022-12-18T03:35:39;-4.30;99.90
18884;DHT22;9574;47.282;9.640;2022-12-18T03:38:06;-4.30;99.90
18884;DHT22;9574;47.282;9.640;2022-12-18T03:40:40;-4.40;99.90
18884;DHT22;9574;47.282;9.640;2022-12-18T03:43:14;-4.00;99.90
18884;DHT22;9574;47.282;9.640;2022-12-18T03:45:50;-4.00;99.90
18884;DHT22;9574;47.282;9.640;2022-12-18T03:48:20;-4.20;99.90
18884;DHT22;9574;47.282;9.640;2022-12-18T03:50:56;-4.20;99.90
18884;DHT22;9574;47.282;9.640;2022-12-18T03:53:31;-4.30;99.90
18884;DHT22;9574;47.282;9.640;2022-12-18T03:56:00;-4.20;99.90
18884;DHT22;9574;47.282;9.640;2022-12-18T03:58:32;-3.90;99.90
18884;DHT22;9574;47.282;9.640;2022-12-18T04:01:02;-3.50;99.90
18884;DHT22;9574;47.282;9.640;2022-12-18T04:03:32;-3.20;99.90
18884;DHT22;9574;47.282;9.640;2022-12-18T04:06:00;-3.50;99.90
18884;DHT22;9574;47.282;9.640;2022-12-18T04:08:29;-3.40;99.90
18884;DHT22;9574;47.282;9.640;2022-12-18T04:10:56;-3.40;99.90
18884;DHT22;9574;47.282;9.640;2022-12-18T04:13:23;-3.40;99.90
18884;DHT22;9574;47.282;9.640;2022-12-18T04:15:52;-3.40;99.90
18884;DHT22;9574;47.282;9.640;2022-12-18T04:18:19;-3.50;99.90
18884;DHT22;9574;47.282;9.640;2022-12-18T04:20:46;-4.00;99.90
18884;DHT22;9574;47.282;9.640;2022-12-18T04:23:13;-4.60;99.90
18884;DHT22;9574;47.282;9.640;2022-12-18T04:25:40;-4.40;99.90
18884;DHT22;9574;47.282;9.640;2022-12-18T04:28:07;-4.20;99.90
18884;DHT22;9574;47.282;9.640;2022-12-18T04:30:34;-4.10;99.90
18884;DHT22;9574;47.282;9.640;2022-12-18T04:33:02;-4.30;99.90
18884;DHT22;9574;47.282;9.640;2022-12-18T04:35:29;-4.80;99.90
18884;DHT22;9574;47.282;9.640;2022-12-18T04:37:56;-5.20;99.90
18884;DHT22;9574;47.282;9.640;2022-12-18T04:40:23;-4.90;99.90
18884;DHT22;9574;47.282;9.640;2022-12-18T04:42:50;-4.60;99.90
18884;DHT22;9574;47.282;9.640;2022-12-18T04:45:17;-4.70;99.90
18884;DHT22;9574;47.282;9.640;2022-12-18T04:47:44;-4.60;99.90
18884;DHT22;9574;47.282;9.640;2022-12-18T04:50:12;-4.30;99.90
18884;DHT22;9574;47.282;9.640;2022-12-18T04:52:39;-4.20;99.90
18884;DHT22;9574;47.282;9.640;2022-12-18T04:55:07;-4.10;99.90
18884;DHT22;9574;47.282;9.640;2022-12-18T04:57:34;-4.30;99.90
18884;DHT22;9574;47.282;9.640;2022-12-18T05:00:01;-4.70;99.90
18884;DHT22;9574;47.282;9.640;2022-12-18T05:02:28;-4.80;99.90
18884;DHT22;9574;47.282;9.640;2022-12-18T05:04:55;-5.10;99.90
18884;DHT22;9574;47.282;9.640;2022-12-18T05:07:23;-5.30;99.90
18884;DHT22;9574;47.282;9.640;2022-12-18T05:09:50;-5.40;99.90
18884;DHT22;9574;47.282;9.640;2022-12-18T05:12:17;-5.60;99.90
18884;DHT22;9574;47.282;9.640;2022-12-18T05:14:44;-5.70;99.90
18884;DHT22;9574;47.282;9.640;2022-12-18T05:17:11;-5.60;99.90
18884;DHT22;9574;47.282;9.640;2022-12-18T05:19:38;-5.60;99.90
18884;DHT22;9574;47.282;9.640;2022-12-18T05:22:05;-5.60;99.90
18884;DHT22;9574;47.282;9.640;2022-12-18T05:24:34;-5.60;99.90
18884;DHT22;9574;47.282;9.640;2022-12-18T05:27:01;-5.60;99.90
18884;DHT22;9574;47.282;9.640;2022-12-18T05:29:28;-5.50;99.90
18884;DHT22;9574;47.282;9.640;2022-12-18T05:31:55;-5.50;99.90
18884;DHT22;9574;47.282;9.640;2022-12-18T05:34:22;-5.30;99.90
18884;DHT22;9574;47.282;9.640;2022-12-18T05:36:49;-5.20;99.90
18884;DHT22;9574;47.282;9.640;2022-12-18T05:39:16;-5.30;99.90
18884;DHT22;9574;47.282;9.640;2022-12-18T05:41:44;-5.20;99.90
18884;DHT22;9574;47.282;9.640;2022-12-18T05:44:11;-5.30;99.90
18884;DHT22;9574;47.282;9.640;2022-12-18T05:46:38;-5.30;99.90
18884;DHT22;9574;47.282;9.640;2022-12-18T05:49:05;-5.30;99.90
18884;DHT22;9574;47.282;9.640;2022-12-18T05:51:32;-5.30;99.90
18884;DHT22;9574;47.282;9.640;2022-12-18T05:53:59;-5.20;99.90
18884;DHT22;9574;47.282;9.640;2022-12-18T05:56:26;-5.30;99.90
18884;DHT22;9574;47.282;9.640;2022-12-18T05:58:55;-5.20;99.90
18884;DHT22;9574;47.282;9.640;2022-12-18T06:01:23;-5.20;99.90
18884;DHT22;9574;47.282;9.640;2022-12-18T06:03:51;-5.20;99.90
18884;DHT22;9574;47.282;9.640;2022-12-18T06:06:20;-5.20;99.90
18884;DHT22;9574;47.282;9.640;2022-12-18T06:08:48;-5.20;99.90
18884;DHT22;9574;47.282;9.640;2022-12-18T06:11:18;-5.20;99.90
18884;DHT22;9574;47.282;9.640;2022-12-18T06:13:45;-5.20;99.90
18884;DHT22;9574;47.282;9.640;2022-12-18T06:16:13;-5.20;99.90
18884;DHT22;9574;47.282;9.640;2022-12-18T06:18:40;-5.20;99.90
18884;DHT22;9574;47.282;9.640;2022-12-18T06:21:07;-5.20;99.90
18884;DHT22;9574;47.282;9.640;2022-12-18T06:23:34;-5.20;99.90
18884;DHT22;9574;47.282;9.640;2022-12-18T06:26:04;-5.00;99.90
18884;DHT22;9574;47.282;9.640;2022-12-18T06:28:32;-5.00;99.90
18884;DHT22;9574;47.282;9.640;2022-12-18T06:30:59;-5.10;99.90
18884;DHT22;9574;47.282;9.640;2022-12-18T06:33:27;-5.10;99.90
18884;DHT22;9574;47.282;9.640;2022-12-18T06:35:59;-5.10;99.90
18884;DHT22;9574;47.282;9.640;2022-12-18T06:38:26;-4.60;99.90
18884;DHT22;9574;47.282;9.640;2022-12-18T06:40:53;-4.30;99.90
18884;DHT22;9574;47.282;9.640;2022-12-18T06:43:20;-4.00;99.90
18884;DHT22;9574;47.282;9.640;2022-12-18T06:45:47;-4.20;99.90
18884;DHT22;9574;47.282;9.640;2022-12-18T06:48:18;-4.30;99.90
18884;DHT22;9574;47.282;9.640;2022-12-18T06:50:47;-4.30;99.90
18884;DHT22;9574;47.282;9.640;2022-12-18T06:53:14;-4.20;99.90
18884;DHT22;9574;47.282;9.640;2022-12-18T06:55:41;-4.50;99.90
18884;DHT22;9574;47.282;9.640;2022-12-18T06:58:08;-4.70;99.90
18884;DHT22;9574;47.282;9.640;2022-12-18T07:00:35;-4.80;99.90
18884;DHT22;9574;47.282;9.640;2022-12-18T07:03:02;-4.90;99.90
18884;DHT22;9574;47.282;9.640;2022-12-18T07:05:29;-5.00;99.90
18884;DHT22;9574;47.282;9.640;2022-12-18T07:07:57;-5.10;99.90
18884;DHT22;9574;47.282;9.640;2022-12-18T07:10:25;-5.20;99.90
18884;DHT22;9574;47.282;9.640;2022-12-18T07:12:52;-5.30;99.90
18884;DHT22;9574;47.282;9.640;2022-12-18T07:15:19;-5.30;99.90
18884;DHT22;9574;47.282;9.640;2022-12-18T07:17:46;-5.20;99.90
18884;DHT22;9574;47.282;9.640;2022-12-18T07:20:13;-5.20;99.90
18884;DHT22;9574;47.282;9.640;2022-12-18T07:22:40;-5.30;99.90
18884;DHT22;9574;47.282;9.640;2022-12-18T07:25:09;-5.20;99.90
18884;DHT22;9574;47.282;9.640;2022-12-18T07:27:36;-5.20;99.90
18884;DHT22;9574;47.282;9.640;2022-12-18T07:30:03;-5.00;99.90
18884;DHT22;9574;47.282;9.640;2022-12-18T07:32:30;-4.90;99.90
18884;DHT22;9574;47.282;9.640;2022-12-18T07:34:57;-4.90;99.90
18884;DHT22;9574;47.282;9.640;2022-12-18T07:37:24;-4.80;99.90
18884;DHT22;9574;47.282;9.640;2022-12-18T07:39:51;-4.90;99.90
18884;DHT22;9574;47.282;9.640;2022-12-18T07:42:19;-4.80;99.90
18884;DHT22;9574;47.282;9.640;2022-12-18T07:44:59;-4.90;99.90
18884;DHT22;9574;47.282;9.640;2022-12-18T07:47:26;-4.80;99.90
18884;DHT22;9574;47.282;9.640;2022-12-18T07:49:54;-4.80;99.90
18884;DHT22;9574;47.282;9.640;2022-12-18T07:52:21;-4.70;99.90
18884;DHT22;9574;47.282;9.640;2022-12-18T07:54:48;-4.60;99.90
18884;DHT22;9574;47.282;9.640;2022-12-18T07:57:15;-4.50;99.90
18884;DHT22;9574;47.282;9.640;2022-12-18T07:59:44;-4.50;99.90
18884;DHT22;9574;47.282;9.640;2022-12-18T08:02:11;-4.50;99.90
18884;DHT22;9574;47.282;9.640;2022-12-18T08:04:38;-4.30;99.90
18884;DHT22;9574;47.282;9.640;2022-12-18T08:07:05;-4.00;99.90
18884;DHT22;9574;47.282;9.640;2022-12-18T08:09:32;-3.80;99.90
18884;DHT22;9574;47.282;9.640;2022-12-18T08:11:59;-4.10;99.90
18884;DHT22;9574;47.282;9.640;2022-12-18T08:14:26;-4.10;99.90
18884;DHT22;9574;47.282;9.640;2022-12-18T08:16:54;-4.20;99.90
18884;DHT22;9574;47.282;9.640;2022-12-18T08:19:21;-4.30;99.90
18884;DHT22;9574;47.282;9.640;2022-12-18T08:21:48;-4.40;99.90
18884;DHT22;9574;47.282;9.640;2022-12-18T08:24:15;-4.30;99.90
18884;DHT22;9574;47.282;9.640;2022-12-18T08:26:42;-4.30;99.90
18884;DHT22;9574;47.282;9.640;2022-12-18T08:29:12;-4.30;99.90
18884;DHT22;9574;47.282;9.640;2022-12-18T08:31:39;-4.20;99.90
18884;DHT22;9574;47.282;9.640;2022-12-18T08:34:08;-4.20;99.90
18884;DHT22;9574;47.282;9.640;2022-12-18T08:36:35;-4.20;99.90
18884;DHT22;9574;47.282;9.640;2022-12-18T08:39:02;-4.20;99.90
18884;DHT22;9574;47.282;9.640;2022-12-18T08:41:29;-4.30;99.90
18884;DHT22;9574;47.282;9.640;2022-12-18T08:43:56;-4.20;99.90
18884;DHT22;9574;47.282;9.640;2022-12-18T08:46:41;-4.20;99.90
18884;DHT22;9574;47.282;9.640;2022-12-18T08:49:11;-4.30;99.90
18884;DHT22;9574;47.282;9.640;2022-12-18T08:51:38;-4.20;99.90
18884;DHT22;9574;47.282;9.640;2022-12-18T08:54:06;-4.20;99.90
18884;DHT22;9574;47.282;9.640;2022-12-18T08:56:33;-4.20;99.90
18884;DHT22;9574;47.282;9.640;2022-12-18T08:59:01;-4.20;99.90
18884;DHT22;9574;47.282;9.640;2022-12-18T09:01:28;-4.20;99.90
18884;DHT22;9574;47.282;9.640;2022-12-18T09:03:55;-3.90;99.90
18884;DHT22;9574;47.282;9.640;2022-12-18T09:06:23;-4.00;99.90
18884;DHT22;9574;47.282;9.640;2022-12-18T09:08:52;-4.00;99.90
18884;DHT22;9574;47.282;9.640;2022-12-18T09:11:21;-3.70;99.90
18884;DHT22;9574;47.282;9.640;2022-12-18T09:13:49;-3.70;99.90
18884;DHT22;9574;47.282;9.640;2022-12-18T09:16:16;-3.50;99.90
18884;DHT22;9574;47.282;9.640;2022-12-18T09:18:43;-3.10;99.90
18884;DHT22;9574;47.282;9.640;2022-12-18T09:21:12;-2.80;99.90
18884;DHT22;9574;47.282;9.640;2022-12-18T09:23:41;-2.80;99.90
18884;DHT22;9574;47.282;9.640;2022-12-18T09:26:08;-2.90;99.90
18884;DHT22;9574;47.282;9.640;2022-12-18T09:28:35;-2.60;99.90
18884;DHT22;9574;47.282;9.640;2022-12-18T09:31:07;-2.40;99.90
18884;DHT22;9574;47.282;9.640;2022-12-18T09:33:34;-2.20;99.90
18884;DHT22;9574;47.282;9.640;2022-12-18T09:36:02;-2.20;99.90
18884;DHT22;9574;47.282;9.640;2022-12-18T09:38:29;-2.10;99.90
18884;DHT22;9574;47.282;9.640;2022-12-18T09:41:05;-2.40;99.90
18884;DHT22;9574;47.282;9.640;2022-12-18T09:43:35;-2.80;99.90
18884;DHT22;9574;47.282;9.640;2022-12-18T09:46:07;-2.80;99.90
18884;DHT22;9574;47.282;9.640;2022-12-18T09:48:38;-2.70;99.90
18884;DHT22;9574;47.282;9.640;2022-12-18T09:51:13;-2.50;99.90
18884;DHT22;9574;47.282;9.640;2022-12-18T09:53:46;-2.70;99.90
18884;DHT22;9574;47.282;9.640;2022-12-18T09:56:17;-2.60;99.90
18884;DHT22;9574;47.282;9.640;2022-12-18T09:58:50;-2.60;99.90
18884;DHT22;9574;47.282;9.640;2022-12-18T10:01:22;-2.50;99.90
18884;DHT22;9574;47.282;9.640;2022-12-18T10:03:49;-2.20;99.90
18884;DHT22;9574;47.282;9.640;2022-12-18T10:06:25;-2.60;99.90
18884;DHT22;9574;47.282;9.640;2022-12-18T10:08:58;-2.80;99.90
18884;DHT22;9574;47.282;9.640;2022-12-18T10:11:34;-3.00;99.90
18884;DHT22;9574;47.282;9.640;2022-12-18T10:14:09;-3.00;99.90
18884;DHT22;9574;47.282;9.640;2022-12-18T10:16:43;-2.70;99.90
18884;DHT22;9574;47.282;9.640;2022-12-18T10:19:25;-2.60;99.90
18884;DHT22;9574;47.282;9.640;2022-12-18T10:21:59;-2.50;99.90
18884;DHT22;9574;47.282;9.640;2022-12-18T10:24:32;-2.40;99.90
18884;DHT22;9574;47.282;9.640;2022-12-18T10:27:12;-2.10;99.90
18884;DHT22;9574;47.282;9.640;2022-12-18T10:29:41;-1.80;99.90
18884;DHT22;9574;47.282;9.640;2022-12-18T10:32:14;-1.80;99.90
18884;DHT22;9574;47.282;9.640;2022-12-18T10:34:44;-2.20;99.90
18884;DHT22;9574;47.282;9.640;2022-12-18T10:37:16;-2.20;99.90
18884;DHT22;9574;47.282;9.640;2022-12-18T10:39:44;-2.10;99.90
18884;DHT22;9574;47.282;9.640;2022-12-18T10:42:17;-2.20;99.90
18884;DHT22;9574;47.282;9.640;2022-12-18T10:44:44;-2.20;99.90
18884;DHT22;9574;47.282;9.640;2022-12-18T10:47:15;-2.20;99.90
18884;DHT22;9574;47.282;9.640;2022-12-18T10:49:47;-2.00;99.90
18884;DHT22;9574;47.282;9.640;2022-12-18T10:52:18;-1.80;99.90
18884;DHT22;9574;47.282;9.640;2022-12-18T10:54:50;-1.60;99.90
18884;DHT22;9574;47.282;9.640;2022-12-18T10:57:31;-1.40;99.90
18884;DHT22;9574;47.282;9.640;2022-12-18T10:59:59;-1.30;99.90
18884;DHT22;9574;47.282;9.640;2022-12-18T11:02:33;-1.20;99.90
18884;DHT22;9574;47.282;9.640;2022-12-18T11:05:01;-1.40;99.90
18884;DHT22;9574;47.282;9.640;2022-12-18T11:07:47;-1.60;99.90
18884;DHT22;9574;47.282;9.640;2022-12-18T11:10:16;-1.80;99.90
18884;DHT22;9574;47.282;9.640;2022-12-18T11:12:46;-1.70;99.90
18884;DHT22;9574;47.282;9.640;2022-12-18T11:15:19;-1.60;99.90
18884;DHT22;9574;47.282;9.640;2022-12-18T11:17:48;-1.40;99.90
18884;DHT22;9574;47.282;9.640;2022-12-18T11:20:30;-1.30;99.90
18884;DHT22;9574;47.282;9.640;2022-12-18T11:23:00;-1.50;99.90
18884;DHT22;9574;47.282;9.640;2022-12-18T11:25:27;-1.40;99.90
18884;DHT22;9574;47.282;9.640;2022-12-18T11:27:59;-1.20;99.90
18884;DHT22;9574;47.282;9.640;2022-12-18T11:30:27;-1.20;99.90
18884;DHT22;9574;47.282;9.640;2022-12-18T11:32:57;-1.10;99.90
18884;DHT22;9574;47.282;9.640;2022-12-18T11:35:36;-1.10;99.90
18884;DHT22;9574;47.282;9.640;2022-12-18T11:38:09;-1.40;99.90
18884;DHT22;9574;47.282;9.640;2022-12-18T11:40:38;-1.30;99.90
18884;DHT22;9574;47.282;9.640;2022-12-18T11:43:11;-1.10;99.90
18884;DHT22;9574;47.282;9.640;2022-12-18T11:45:43;-1.20;99.90
18884;DHT22;9574;47.282;9.640;2022-12-18T11:48:16;-1.50;99.90
18884;DHT22;9574;47.282;9.640;2022-12-18T11:50:49;-1.70;99.90
18884;DHT22;9574;47.282;9.640;2022-12-18T11:53:17;-1.80;99.90
18884;DHT22;9574;47.282;9.640;2022-12-18T11:55:52;-2.00;99.90
18884;DHT22;9574;47.282;9.640;2022-12-18T11:58:35;-2.00;99.90
18884;DHT22;9574;47.282;9.640;2022-12-18T12:06:32;-1.90;99.90
18884;DHT22;9574;47.282;9.640;2022-12-18T12:09:08;-1.80;99.90
18884;DHT22;9574;47.282;9.640;2022-12-18T12:11:45;-1.40;99.90
18884;DHT22;9574;47.282;9.640;2022-12-18T12:14:31;-1.20;99.90
18884;DHT22;9574;47.282;9.640;2022-12-18T12:17:03;-1.00;99.90
18884;DHT22;9574;47.282;9.640;2022-12-18T12:19:42;-0.90;99.90
18884;DHT22;9574;47.282;9.640;2022-12-18T12:22:17;-1.00;99.90
18884;DHT22;9574;47.282;9.640;2022-12-18T12:24:55;-1.10;99.90
18884;DHT22;9574;47.282;9.640;2022-12-18T12:27:32;-1.40;99.90
18884;DHT22;9574;47.282;9.640;2022-12-18T12:30:06;-1.40;99.90
18884;DHT22;9574;47.282;9.640;2022-12-18T12:32:45;-1.50;99.90
18884;DHT22;9574;47.282;9.640;2022-12-18T12:35:26;-1.20;99.90
18884;DHT22;9574;47.282;9.640;2022-12-18T12:38:02;-1.10;99.90
18884;DHT22;9574;47.282;9.640;2022-12-18T12:40:34;-1.30;99.90
18884;DHT22;9574;47.282;9.640;2022-12-18T12:43:05;-1.40;99.90
18884;DHT22;9574;47.282;9.640;2022-12-18T12:45:44;-1.20;99.90
18884;DHT22;9574;47.282;9.640;2022-12-18T12:48:18;-1.00;99.90
18884;DHT22;9574;47.282;9.640;2022-12-18T12:50:47;-0.80;99.90
18884;DHT22;9574;47.282;9.640;2022-12-18T12:53:25;-0.60;99.90
18884;DHT22;9574;47.282;9.640;2022-12-18T12:55:54;-0.50;99.90
18884;DHT22;9574;47.282;9.640;2022-12-18T12:58:29;-0.70;99.90
18884;DHT22;9574;47.282;9.640;2022-12-18T13:01:08;-0.50;99.90
18884;DHT22;9574;47.282;9.640;2022-12-18T13:03:46;-0.60;99.90
18884;DHT22;9574;47.282;9.640;2022-12-18T13:06:32;-0.60;99.90
18884;DHT22;9574;47.282;9.640;2022-12-18T13:09:00;-0.60;99.90
18884;DHT22;9574;47.282;9.640;2022-12-18T13:11:35;-1.00;99.90
18884;DHT22;9574;47.282;9.640;2022-12-18T13:14:23;-1.20;99.90
18884;DHT22;9574;47.282;9.640;2022-12-18T13:17:16;-1.30;99.90
18884;DHT22;9574;47.282;9.640;2022-12-18T13:19:44;-1.20;99.90
18884;DHT22;9574;47.282;9.640;2022-12-18T13:22:21;-1.00;99.90
18884;DHT22;9574;47.282;9.640;2022-12-18T13:24:49;-0.90;99.90
18884;DHT22;9574;47.282;9.640;2022-12-18T13:30:49;-0.70;99.90
18884;DHT22;9574;47.282;9.640;2022-12-18T13:33:41;-0.70;99.90
18884;DHT22;9574;47.282;9.640;2022-12-18T13:36:23;-0.70;99.90
18884;DHT22;9574;47.282;9.640;2022-12-18T13:41:52;-0.70;99.90
18884;DHT22;9574;47.282;9.640;2022-12-18T13:44:31;-0.60;99.90
18884;DHT22;9574;47.282;9.640;2022-12-18T13:46:58;-0.60;99.90
18884;DHT22;9574;47.282;9.640;2022-12-18T13:49:35;-0.60;99.90
18884;DHT22;9574;47.282;9.640;2022-12-18T13:52:13;-0.60;99.90
18884;DHT22;9574;47.282;9.640;2022-12-18T13:54:42;-0.60;99.90
18884;DHT22;9574;47.282;9.640;2022-12-18T13:57:26;-0.60;99.90
18884;DHT22;9574;47.282;9.640;2022-12-18T13:59:53;-0.50;99.90
18884;DHT22;9574;47.282;9.640;2022-12-18T14:02:22;-0.60;99.90
18884;DHT22;9574;47.282;9.640;2022-12-18T14:04:51;-0.60;99.90
18884;DHT22;9574;47.282;9.640;2022-12-18T14:07:21;-0.80;99.90
18884;DHT22;9574;47.282;9.640;2022-12-18T14:09:50;-1.20;99.90
18884;DHT22;9574;47.282;9.640;2022-12-18T14:12:20;-1.40;99.90
18884;DHT22;9574;47.282;9.640;2022-12-18T14:15:22;-1.60;99.90
18884;DHT22;9574;47.282;9.640;2022-12-18T14:17:51;-1.70;99.90
18884;DHT22;9574;47.282;9.640;2022-12-18T14:20:20;-1.80;99.90
18884;DHT22;9574;47.282;9.640;2022-12-18T14:22:49;-1.90;99.90
18884;DHT22;9574;47.282;9.640;2022-12-18T14:25:18;-1.80;99.90
18884;DHT22;9574;47.282;9.640;2022-12-18T14:27:49;-1.50;99.90
18884;DHT22;9574;47.282;9.640;2022-12-18T14:30:28;-1.50;99.90
18884;DHT22;9574;47.282;9.640;2022-12-18T14:33:05;-1.60;99.90
18884;DHT22;9574;47.282;9.640;2022-12-18T14:35:38;-1.40;99.90
18884;DHT22;9574;47.282;9.640;2022-12-18T14:38:21;-1.30;99.90
18884;DHT22;9574;47.282;9.640;2022-12-18T14:40:52;-1.20;99.90
18884;DHT22;9574;47.282;9.640;2022-12-18T14:43:20;-1.20;99.90
18884;DHT22;9574;47.282;9.640;2022-12-18T14:45:48;-1.20;99.90
18884;DHT22;9574;47.282;9.640;2022-12-18T14:48:17;-1.30;99.90
18884;DHT22;9574;47.282;9.640;2022-12-18T14:50:59;-1.30;99.90
18884;DHT22;9574;47.282;9.640;2022-12-18T14:53:36;-1.10;99.90
18884;DHT22;9574;47.282;9.640;2022-12-18T14:56:16;-1.10;99.90
18884;DHT22;9574;47.282;9.640;2022-12-18T14:58:48;-1.10;99.90
18884;DHT22;9574;47.282;9.640;2022-12-18T15:01:21;-1.10;99.90
18884;DHT22;9574;47.282;9.640;2022-12-18T15:03:50;-1.00;99.90
18884;DHT22;9574;47.282;9.640;2022-12-18T15:06:29;-1.10;99.90
18884;DHT22;9574;47.282;9.640;2022-12-18T15:08:57;-1.10;99.90
18884;DHT22;9574;47.282;9.640;2022-12-18T15:11:34;-1.10;99.90
18884;DHT22;9574;47.282;9.640;2022-12-18T15:14:23;-1.00;99.90
18884;DHT22;9574;47.282;9.640;2022-12-18T15:16:54;-1.00;99.90
18884;DHT22;9574;47.282;9.640;2022-12-18T15:19:23;-1.20;99.90
18884;DHT22;9574;47.282;9.640;2022-12-18T15:21:54;-1.10;99.90
18884;DHT22;9574;47.282;9.640;2022-12-18T15:24:26;-1.20;99.90
18884;DHT22;9574;47.282;9.640;2022-12-18T15:26:53;-1.10;99.90
18884;DHT22;9574;47.282;9.640;2022-12-18T15:29:24;-1.30;99.90
18884;DHT22;9574;47.282;9.640;2022-12-18T15:32:02;-1.30;99.90
18884;DHT22;9574;47.282;9.640;2022-12-18T15:34:30;-1.20;99.90
18884;DHT22;9574;47.282;9.640;2022-12-18T15:37:01;-1.30;99.90
18884;DHT22;9574;47.282;9.640;2022-12-18T15:39:28;-1.30;99.90
18884;DHT22;9574;47.282;9.640;2022-12-18T15:41:55;-1.30;99.90
18884;DHT22;9574;47.282;9.640;2022-12-18T15:44:40;-1.40;99.90
18884;DHT22;9574;47.282;9.640;2022-12-18T15:47:12;-1.40;99.90
18884;DHT22;9574;47.282;9.640;2022-12-18T15:49:41;-1.30;99.90
18884;DHT22;9574;47.282;9.640;2022-12-18T15:52:12;-1.40;99.90
18884;DHT22;9574;47.282;9.640;2022-12-18T15:54:51;-1.40;99.90
18884;DHT22;9574;47.282;9.640;2022-12-18T15:57:36;-1.30;99.90
18884;DHT22;9574;47.282;9.640;2022-12-18T16:00:03;-1.10;99.90
18884;DHT22;9574;47.282;9.640;2022-12-18T16:02:30;-1.20;99.90
18884;DHT22;9574;47.282;9.640;2022-12-18T16:04:57;-1.10;99.90
18884;DHT22;9574;47.282;9.640;2022-12-18T16:07:26;-1.10;99.90
18884;DHT22;9574;47.282;9.640;2022-12-18T16:09:53;-1.00;99.90
18884;DHT22;9574;47.282;9.640;2022-12-18T16:12:22;-1.10;99.90
18884;DHT22;9574;47.282;9.640;2022-12-18T16:14:49;-1.20;99.90
18884;DHT22;9574;47.282;9.640;2022-12-18T16:17:16;-1.60;99.90
18884;DHT22;9574;47.282;9.640;2022-12-18T16:19:44;-1.60;99.90
18884;DHT22;9574;47.282;9.640;2022-12-18T16:22:18;-1.60;99.90